createdAt,value
2022-09-22T00:01:53.013Z,100652.09
2022-09-22T00:04:23.753Z,100658.22
2022-09-22T00:06:56.390Z,100646.44
2022-09-22T00:09:24.177Z,100649.81
2022-09-22T00:11:55.768Z,100645.09
2022-09-22T00:14:54.046Z,100638.16
2022-09-22T00:17:27.855Z,100647.53
2022-09-22T00:19:56.654Z,100641.03
2022-09-22T00:22:24.770Z,100649.81
2022-09-22T00:24:52.882Z,100648.22
2022-09-22T00:27:25.599Z,100646.66
2022-09-22T00:30:04.585Z,100645.34
2022-09-22T00:32:46.046Z,100636.19
2022-09-22T00:35:17.612Z,100637.75
2022-09-22T00:37:45.660Z,100639.97
2022-09-22T00:40:21.782Z,100641.22
2022-09-22T00:43:14.150Z,100643.00
2022-09-22T00:45:46.998Z,100635.00
2022-09-22T00:48:23.266Z,100626.38
2022-09-22T00:50:54.938Z,100634.16
2022-09-22T00:53:27.069Z,100638.28
2022-09-22T00:57:15.833Z,100638.72
2022-09-22T00:59:54.797Z,100623.22
2022-09-22T01:02:34.896Z,100631.19
2022-09-22T01:05:06.795Z,100630.16
2022-09-22T01:07:37.221Z,100614.53
2022-09-22T01:10:05.604Z,100609.31
2022-09-22T01:12:37.063Z,100616.25
2022-09-22T01:15:48.564Z,100605.97
2022-09-22T01:19:36.464Z,100610.88
2022-09-22T01:22:37.910Z,100610.44
2022-09-22T01:25:55.084Z,100610.13
2022-09-22T01:28:54.161Z,100610.97
2022-09-22T01:31:34.002Z,100615.13
2022-09-22T01:34:14.474Z,100608.66
2022-09-22T01:37:05.600Z,100608.56
2022-09-22T01:40:06.023Z,100611.69
2022-09-22T01:43:08.679Z,100609.69
2022-09-22T01:45:46.756Z,100606.53
2022-09-22T01:48:46.365Z,100611.09
2022-09-22T01:52:00.897Z,100619.75
2022-09-22T01:54:55.603Z,100605.91
2022-09-22T01:58:07.030Z,100613.00
2022-09-22T02:00:42.083Z,100604.78
2022-09-22T02:04:06.417Z,100615.19
2022-09-22T02:06:50.544Z,100600.03
2022-09-22T02:09:52.633Z,100598.13
2022-09-22T02:12:28.388Z,100600.97
2022-09-22T02:15:30.132Z,100605.53
2022-09-22T02:19:06.264Z,100604.16
2022-09-22T02:21:59.436Z,100602.34
2022-09-22T02:24:44.300Z,100591.47
2022-09-22T02:27:36.493Z,100597.94
2022-09-22T02:30:18.235Z,100597.19
2022-09-22T02:32:59.900Z,100588.88
2022-09-22T02:35:33.418Z,100592.63
2022-09-22T02:39:08.163Z,100596.44
2022-09-22T02:42:27.175Z,100592.66
2022-09-22T02:45:27.741Z,100592.50
2022-09-22T02:48:23.097Z,100589.38
2022-09-22T02:51:16.540Z,100586.88
2022-09-22T02:53:50.398Z,100593.81
2022-09-22T02:56:21.395Z,100597.56
2022-09-22T02:58:49.833Z,100595.06
2022-09-22T03:01:20.400Z,100593.47
2022-09-22T03:04:00.410Z,100592.56
2022-09-22T03:06:49.317Z,100586.28
2022-09-22T03:09:23.061Z,100590.06
2022-09-22T03:11:50.634Z,100594.78
2022-09-22T03:14:21.125Z,100582.03
2022-09-22T03:16:52.068Z,100587.69
2022-09-22T03:19:19.673Z,100583.59
2022-09-22T03:21:50.406Z,100593.47
2022-09-22T03:24:20.925Z,100595.06
2022-09-22T03:26:51.355Z,100594.16
2022-09-22T03:29:22.307Z,100591.63
2022-09-22T03:32:01.933Z,100587.69
2022-09-22T03:34:32.937Z,100589.75
2022-09-22T03:37:15.110Z,100593.03
2022-09-22T03:39:52.119Z,100600.91
2022-09-22T03:42:32.982Z,100598.34
2022-09-22T03:45:16.839Z,100595.31
2022-09-22T03:47:54.357Z,100591.88
2022-09-22T03:50:25.261Z,100601.94
2022-09-22T03:52:53.190Z,100590.28
2022-09-22T03:55:25.435Z,100598.94
2022-09-22T03:58:03.880Z,100600.31
2022-09-22T04:00:34.591Z,100606.13
2022-09-22T04:06:24.566Z,100601.53
2022-09-22T04:08:56.065Z,100604.56
2022-09-22T04:11:27.445Z,100597.81
2022-09-22T04:14:04.994Z,100596.91
2022-09-22T04:16:36.088Z,100603.50
2022-09-22T04:19:05.798Z,100607.28
2022-09-22T04:21:33.725Z,100613.28
2022-09-22T04:24:07.640Z,100605.44
2022-09-22T04:26:35.527Z,100608.56
2022-09-22T04:29:03.148Z,100609.34
2022-09-22T04:31:33.504Z,100608.53
2022-09-22T04:34:25.884Z,100614.81
2022-09-22T04:36:56.575Z,100610.38
2022-09-22T04:39:33.364Z,100611.34
2022-09-22T04:42:10.136Z,100617.78
2022-09-22T04:44:47.603Z,100623.59
2022-09-22T04:47:56.582Z,100620.47
2022-09-22T04:50:28.688Z,100623.31
2022-09-22T04:52:57.421Z,100616.88
2022-09-22T04:55:26.525Z,100620.19
2022-09-22T04:57:58.082Z,100626.59
2022-09-22T05:00:47.140Z,100623.44
2022-09-22T05:03:22.364Z,100623.91
2022-09-22T05:05:51.815Z,100619.38
2022-09-22T05:08:37.858Z,100612.06
2022-09-22T05:11:17.238Z,100610.63
2022-09-22T05:14:06.193Z,100625.84
2022-09-22T05:16:37.227Z,100621.75
2022-09-22T05:19:04.934Z,100618.59
2022-09-22T05:21:36.005Z,100614.06
2022-09-22T05:24:07.331Z,100606.69
2022-09-22T05:26:38.160Z,100615.66
2022-09-22T05:29:06.423Z,100626.88
2022-09-22T05:31:51.701Z,100629.81
2022-09-22T05:34:25.277Z,100622.50
2022-09-22T05:37:08.139Z,100633.84
2022-09-22T05:39:39.084Z,100625.69
2022-09-22T05:42:48.039Z,100629.81
2022-09-22T05:45:28.263Z,100627.09
2022-09-22T05:47:59.883Z,100631.94
2022-09-22T05:50:31.514Z,100629.41
2022-09-22T05:56:08.557Z,100626.34
2022-09-22T05:58:39.248Z,100627.13
2022-09-22T06:01:10.185Z,100626.84
2022-09-22T06:03:38.201Z,100630.31
2022-09-22T06:06:09.240Z,100635.31
2022-09-22T06:08:49.400Z,100626.28
2022-09-22T06:11:17.046Z,100638.88
2022-09-22T06:13:44.846Z,100637.28
2022-09-22T06:16:19.525Z,100637.94
2022-09-22T06:18:50.573Z,100631.47
2022-09-22T06:21:18.922Z,100634.72
2022-09-22T06:23:46.414Z,100635.53
2022-09-22T06:26:20.100Z,100639.34
2022-09-22T06:29:19.959Z,100640.06
2022-09-22T06:31:58.194Z,100641.66
2022-09-22T06:34:28.579Z,100644.00
2022-09-22T06:37:09.482Z,100635.91
2022-09-22T06:39:40.008Z,100643.25
2022-09-22T06:42:20.171Z,100639.38
2022-09-22T06:44:47.994Z,100645.03
2022-09-22T06:47:19.272Z,100650.66
2022-09-22T06:49:50.240Z,100647.78
2022-09-22T06:52:21.087Z,100654.03
2022-09-22T06:55:00.927Z,100647.38
2022-09-22T06:57:59.734Z,100643.69
2022-09-22T07:00:33.083Z,100647.44
2022-09-22T07:03:24.474Z,100653.03
2022-09-22T07:06:29.265Z,100655.97
2022-09-22T07:09:01.541Z,100655.13
2022-09-22T07:11:56.752Z,100662.88
2022-09-22T07:14:29.744Z,100653.81
2022-09-22T07:16:57.255Z,100662.44
2022-09-22T07:19:25.009Z,100656.88
2022-09-22T07:21:53.036Z,100662.16
2022-09-22T07:24:20.530Z,100669.22
2022-09-22T07:26:48.074Z,100662.38
2022-09-22T07:29:16.849Z,100667.75
2022-09-22T07:31:44.711Z,100665.97
2022-09-22T07:34:13.058Z,100672.88
2022-09-22T07:36:40.972Z,100668.31
2022-09-22T07:39:11.198Z,100673.94
2022-09-22T07:41:43.149Z,100678.63
2022-09-22T07:44:34.435Z,100679.66
2022-09-22T07:47:03.469Z,100682.00
2022-09-22T07:49:31.692Z,100690.63
2022-09-22T07:51:59.717Z,100687.41
2022-09-22T07:54:28.228Z,100686.97
2022-09-22T07:56:58.700Z,100690.69
2022-09-22T07:59:27.587Z,100706.13
2022-09-22T08:01:55.774Z,100701.88
2022-09-22T08:04:24.452Z,100696.94
2022-09-22T08:06:55.433Z,100684.47
2022-09-22T08:09:25.338Z,100679.44
2022-09-22T08:11:53.832Z,100686.72
2022-09-22T08:14:23.251Z,100682.78
2022-09-22T08:16:53.895Z,100673.06
2022-09-22T08:19:24.193Z,100692.00
2022-09-22T08:21:54.469Z,100681.03
2022-09-22T08:24:23.682Z,100680.91
2022-09-22T08:26:55.991Z,100683.06
2022-09-22T08:29:24.761Z,100686.63
2022-09-22T08:31:54.172Z,100688.44
2022-09-22T08:34:22.553Z,100691.22
2022-09-22T08:36:50.515Z,100684.53
2022-09-22T08:39:18.954Z,100684.16
2022-09-22T08:42:14.423Z,100693.81
2022-09-22T08:45:27.165Z,100691.00
2022-09-22T08:48:21.720Z,100693.13
2022-09-22T08:51:12.524Z,100684.84
2022-09-22T08:53:48.235Z,100683.25
2022-09-22T08:56:32.272Z,100679.31
2022-09-22T08:59:23.221Z,100677.72
2022-09-22T09:02:28.469Z,100678.78
2022-09-22T09:05:37.705Z,100678.00
2022-09-22T09:08:34.911Z,100682.94
2022-09-22T09:11:16.780Z,100665.06
2022-09-22T09:14:30.545Z,100677.94
2022-09-22T09:17:21.131Z,100673.47
2022-09-22T09:20:03.377Z,100671.69
2022-09-22T09:22:43.719Z,100671.69
2022-09-22T09:25:42.087Z,100664.16
2022-09-22T09:28:27.520Z,100679.97
2022-09-22T09:31:11.079Z,100681.13
2022-09-22T09:34:00.632Z,100675.75
2022-09-22T09:36:37.912Z,100665.63
2022-09-22T09:39:32.940Z,100670.53
2022-09-22T09:42:08.863Z,100666.69
2022-09-22T09:44:40.209Z,100660.63
2022-09-22T09:47:23.998Z,100663.06
2022-09-22T09:49:53.169Z,100664.00
2022-09-22T09:52:21.322Z,100656.22
2022-09-22T09:54:49.872Z,100660.47
2022-09-22T09:57:19.265Z,100654.81
2022-09-22T10:00:08.577Z,100651.19
2022-09-22T10:02:57.241Z,100649.47
2022-09-22T10:05:27.256Z,100654.25
2022-09-22T10:08:03.137Z,100650.00
2022-09-22T10:10:38.027Z,100659.31
2022-09-22T10:13:05.518Z,100669.47
2022-09-22T10:15:36.274Z,100654.75
2022-09-22T10:18:24.333Z,100655.81
2022-09-22T10:21:20.081Z,100655.63
2022-09-22T10:24:00.330Z,100654.13
2022-09-22T10:26:31.463Z,100650.19
2022-09-22T10:29:20.950Z,100641.97
2022-09-22T10:32:16.919Z,100641.16
2022-09-22T10:34:51.469Z,100630.91
2022-09-22T10:37:27.841Z,100633.16
2022-09-22T10:40:03.543Z,100644.72
2022-09-22T10:42:45.468Z,100631.16
2022-09-22T10:45:19.439Z,100632.13
2022-09-22T10:48:03.601Z,100628.22
2022-09-22T10:50:51.213Z,100624.34
2022-09-22T10:53:29.502Z,100620.63
2022-09-22T10:56:27.999Z,100619.50
2022-09-22T10:59:20.116Z,100619.72
2022-09-22T11:02:15.523Z,100615.75
2022-09-22T11:05:03.002Z,100616.66
2022-09-22T11:08:14.107Z,100602.09
2022-09-22T11:11:51.561Z,100604.69
2022-09-22T11:15:03.923Z,100600.19
2022-09-22T11:17:45.532Z,100593.75
2022-09-22T11:20:32.376Z,100602.22
2022-09-22T11:23:21.312Z,100591.34
2022-09-22T11:26:08.025Z,100597.19
2022-09-22T11:28:57.142Z,100585.63
2022-09-22T11:31:44.188Z,100592.59
2022-09-22T11:34:45.456Z,100577.28
2022-09-22T11:37:44.472Z,100583.72
2022-09-22T11:40:41.381Z,100576.28
2022-09-22T11:43:38.881Z,100579.06
2022-09-22T11:46:47.741Z,100571.34
2022-09-22T11:49:48.492Z,100565.78
2022-09-22T11:52:34.383Z,100562.75
2022-09-22T11:55:13.119Z,100563.56
2022-09-22T11:57:49.297Z,100560.09
2022-09-22T12:00:23.212Z,100562.78
2022-09-22T12:03:12.574Z,100567.88
2022-09-22T12:05:58.633Z,100555.50
2022-09-22T12:08:35.695Z,100554.22
2022-09-22T12:11:06.894Z,100551.78
2022-09-22T12:13:37.283Z,100544.03
2022-09-22T12:16:30.993Z,100539.38
2022-09-22T12:19:13.477Z,100546.44
2022-09-22T12:22:08.611Z,100548.09
2022-09-22T12:24:37.572Z,100534.28
2022-09-22T12:27:20.348Z,100541.38
2022-09-22T12:30:00.301Z,100536.44
2022-09-22T12:32:50.571Z,100534.22
2022-09-22T12:35:31.478Z,100541.31
2022-09-22T12:38:02.461Z,100526.25
2022-09-22T12:40:41.658Z,100525.53
2022-09-22T12:43:21.213Z,100522.06
2022-09-22T12:45:51.454Z,100523.63
2022-09-22T12:48:27.492Z,100518.56
2022-09-22T12:51:31.315Z,100507.66
2022-09-22T12:54:23.673Z,100508.41
2022-09-22T12:57:20.518Z,100508.00
2022-09-22T13:00:13.805Z,100503.03
2022-09-22T13:02:47.354Z,100496.84
2022-09-22T13:05:36.839Z,100495.25
2022-09-22T13:08:04.758Z,100498.72
2022-09-22T13:10:32.260Z,100499.47
2022-09-22T13:13:11.396Z,100492.03
2022-09-22T13:15:51.101Z,100488.88
2022-09-22T13:18:39.453Z,100488.72
2022-09-22T13:21:13.310Z,100503.34
2022-09-22T13:23:49.675Z,100501.63
2022-09-22T13:26:34.575Z,100501.44
2022-09-22T13:29:19.843Z,100499.59
2022-09-22T13:31:55.546Z,100502.47
2022-09-22T13:34:37.404Z,100496.06
2022-09-22T13:37:34.685Z,100496.25
2022-09-22T13:40:02.822Z,100501.16
2022-09-22T13:42:32.787Z,100498.03
2022-09-22T13:45:21.524Z,100508.84
2022-09-22T13:47:50.652Z,100507.66
2022-09-22T13:50:22.659Z,100499.06
2022-09-22T13:52:52.329Z,100502.53
2022-09-22T13:55:29.395Z,100499.47
2022-09-22T13:57:59.294Z,100504.50
2022-09-22T14:01:08.767Z,100508.03
2022-09-22T14:03:37.676Z,100510.97
2022-09-22T14:06:10.581Z,100508.66
2022-09-22T14:08:38.658Z,100507.78
2022-09-22T14:11:36.553Z,100498.31
2022-09-22T14:14:06.924Z,100501.28
2022-09-22T14:17:00.731Z,100503.59
2022-09-22T14:19:49.099Z,100513.63
2022-09-22T14:22:26.589Z,100503.50
2022-09-22T14:25:00.965Z,100504.72
2022-09-22T14:27:55.346Z,100506.16
2022-09-22T14:30:32.800Z,100497.38
2022-09-22T14:33:04.013Z,100502.72
2022-09-22T14:35:37.416Z,100497.69
2022-09-22T14:38:15.470Z,100493.72
2022-09-22T14:40:54.323Z,100494.97
2022-09-22T14:43:37.918Z,100500.88
2022-09-22T14:46:33.948Z,100512.16
2022-09-22T14:49:44.524Z,100502.09
2022-09-22T14:52:32.761Z,100506.00
2022-09-22T14:55:12.174Z,100502.13
2022-09-22T14:57:46.484Z,100501.41
2022-09-22T15:00:35.372Z,100505.69
2022-09-22T15:03:28.189Z,100503.00
2022-09-22T15:06:06.279Z,100504.59
2022-09-22T15:08:34.421Z,100506.53
2022-09-22T15:11:03.406Z,100514.28
2022-09-22T15:13:45.778Z,100520.88
2022-09-22T15:16:38.351Z,100516.19
2022-09-22T15:19:11.024Z,100522.00
2022-09-22T15:21:46.138Z,100526.69
2022-09-22T15:24:27.047Z,100525.13
2022-09-22T15:26:57.428Z,100516.22
2022-09-22T15:29:25.168Z,100523.22
2022-09-22T15:31:52.769Z,100524.34
2022-09-22T15:34:20.676Z,100529.44
2022-09-22T15:36:50.050Z,100536.44
2022-09-22T15:39:22.464Z,100530.53
2022-09-22T15:41:52.145Z,100532.38
2022-09-22T15:44:19.853Z,100540.72
2022-09-22T15:46:54.409Z,100539.66
2022-09-22T15:49:26.485Z,100540.13
2022-09-22T15:51:56.674Z,100536.72
2022-09-22T15:54:26.167Z,100540.38
2022-09-22T15:56:56.338Z,100538.56
2022-09-22T15:59:28.541Z,100546.09
2022-09-22T16:01:57.182Z,100561.22
2022-09-22T16:04:30.071Z,100557.03
2022-09-22T16:07:04.045Z,100567.41
2022-09-22T16:09:31.795Z,100567.84
2022-09-22T16:11:59.755Z,100575.19
2022-09-22T16:14:27.322Z,100584.56
2022-09-22T16:16:54.954Z,100592.47
2022-09-22T16:19:22.872Z,100603.84
2022-09-22T16:21:54.236Z,100602.78
2022-09-22T16:24:22.693Z,100609.00
2022-09-22T16:26:51.947Z,100611.41
2022-09-22T16:29:19.595Z,100619.25
2022-09-22T16:31:47.252Z,100612.16
2022-09-22T16:34:15.065Z,100608.69
2022-09-22T16:36:44.587Z,100602.16
2022-09-22T16:39:12.030Z,100598.16
2022-09-22T16:41:47.567Z,100601.91
2022-09-22T16:44:16.124Z,100600.34
2022-09-22T16:46:44.029Z,100612.22
2022-09-22T16:49:16.358Z,100612.16
2022-09-22T16:51:49.818Z,100610.94
2022-09-22T16:54:19.675Z,100602.16
2022-09-22T16:56:50.551Z,100601.00
2022-09-22T16:59:22.810Z,100600.63
2022-09-22T17:01:51.255Z,100596.31
2022-09-22T17:04:19.564Z,100592.09
2022-09-22T17:06:48.252Z,100586.53
2022-09-22T17:09:17.238Z,100577.91
2022-09-22T17:11:49.210Z,100562.56
2022-09-22T17:14:24.365Z,100556.19
2022-09-22T17:16:56.664Z,100555.03
2022-09-22T17:19:27.849Z,100550.09
2022-09-22T17:21:56.759Z,100541.50
2022-09-22T17:24:27.255Z,100546.09
2022-09-22T17:26:58.843Z,100551.38
2022-09-22T17:29:31.501Z,100555.19
2022-09-22T17:32:08.402Z,100553.97
2022-09-22T17:34:38.301Z,100560.56
2022-09-22T17:37:06.320Z,100561.91
2022-09-22T17:39:33.835Z,100569.38
2022-09-22T17:42:01.766Z,100569.19
2022-09-22T17:44:33.573Z,100573.41
2022-09-22T17:47:20.051Z,100579.22
2022-09-22T17:50:06.670Z,100572.50
2022-09-22T17:52:52.959Z,100581.06
2022-09-22T17:55:25.329Z,100579.31
2022-09-22T17:57:54.524Z,100583.69
2022-09-22T18:00:24.610Z,100584.72
2022-09-22T18:02:55.065Z,100595.00
2022-09-22T18:05:26.679Z,100589.63
2022-09-22T18:07:58.588Z,100594.56
2022-09-22T18:10:32.338Z,100603.19
2022-09-22T18:13:02.053Z,100599.19
2022-09-22T18:15:30.470Z,100599.53
2022-09-22T18:17:58.299Z,100597.50
2022-09-22T18:20:27.374Z,100603.53
2022-09-22T18:22:57.897Z,100599.75
2022-09-22T18:25:25.725Z,100604.00
2022-09-22T18:27:54.595Z,100603.28
2022-09-22T18:30:22.280Z,100609.78
2022-09-22T18:32:49.914Z,100602.59
2022-09-22T18:35:18.585Z,100611.66
2022-09-22T18:37:46.430Z,100611.28
2022-09-22T18:40:14.043Z,100609.72
2022-09-22T18:42:43.565Z,100601.84
2022-09-22T18:45:12.561Z,100607.34
2022-09-22T18:47:43.284Z,100605.19
2022-09-22T18:50:12.407Z,100595.19
2022-09-22T18:52:43.108Z,100598.94
2022-09-22T18:55:14.152Z,100595.03
2022-09-22T18:57:42.669Z,100603.56
2022-09-22T19:00:13.796Z,100609.34
2022-09-22T19:02:41.839Z,100602.97
2022-09-22T19:05:10.223Z,100606.91
2022-09-22T19:07:42.959Z,100605.13
2022-09-22T19:10:22.030Z,100606.00
2022-09-22T19:12:50.254Z,100610.16
2022-09-22T19:15:19.577Z,100605.56
2022-09-22T19:17:49.531Z,100613.19
2022-09-22T19:20:23.828Z,100609.38
2022-09-22T19:22:52.969Z,100604.00
2022-09-22T19:25:22.221Z,100604.00
2022-09-22T19:27:52.598Z,100607.81
2022-09-22T19:30:24.795Z,100607.47
2022-09-22T19:32:54.982Z,100606.69
2022-09-22T19:35:25.090Z,100610.16
2022-09-22T19:37:53.662Z,100610.38
2022-09-22T19:40:25.126Z,100614.88
2022-09-22T19:42:54.525Z,100610.25
2022-09-22T19:45:24.056Z,100614.53
2022-09-22T19:47:52.941Z,100621.44
2022-09-22T19:50:20.820Z,100619.44
2022-09-22T19:52:48.654Z,100634.13
2022-09-22T19:55:20.757Z,100624.13
2022-09-22T19:57:49.974Z,100617.66
2022-09-22T20:00:18.243Z,100623.03
2022-09-22T20:02:46.192Z,100625.72
2022-09-22T20:05:21.466Z,100626.94
2022-09-22T20:07:49.670Z,100624.59
2022-09-22T20:10:21.162Z,100627.97
2022-09-22T20:12:50.343Z,100621.78
2022-09-22T20:15:18.944Z,100619.31
2022-09-22T20:17:47.820Z,100626.84
2022-09-22T20:20:23.664Z,100625.25
2022-09-22T20:23:04.151Z,100632.09
2022-09-22T20:25:33.207Z,100625.72
2022-09-22T20:28:01.291Z,100627.06
2022-09-22T20:30:29.039Z,100627.72
2022-09-22T20:32:56.594Z,100625.03
2022-09-22T20:35:24.461Z,100631.41
2022-09-22T20:37:52.345Z,100632.88
2022-09-22T20:40:21.614Z,100627.38
2022-09-22T20:42:49.957Z,100642.16
2022-09-22T20:45:21.030Z,100638.78
2022-09-22T20:47:49.734Z,100642.91
2022-09-22T20:50:17.611Z,100643.56
2022-09-22T20:52:45.195Z,100635.84
2022-09-22T20:55:12.732Z,100640.44
2022-09-22T20:57:41.227Z,100643.22
2022-09-22T21:00:10.009Z,100634.41
2022-09-22T21:02:38.509Z,100643.69
2022-09-22T21:05:06.581Z,100640.66
2022-09-22T21:07:34.167Z,100645.81
2022-09-22T21:10:20.474Z,100643.56
2022-09-22T21:12:50.739Z,100654.09
2022-09-22T21:15:19.929Z,100649.66
2022-09-22T21:17:49.905Z,100660.41
2022-09-22T21:20:17.769Z,100649.66
2022-09-22T21:22:45.371Z,100658.81
2022-09-22T21:25:12.955Z,100651.19
2022-09-22T21:27:40.855Z,100658.34
2022-09-22T21:30:08.904Z,100644.22
2022-09-22T21:32:37.587Z,100657.63
2022-09-22T21:35:06.228Z,100649.78
2022-09-22T21:37:33.827Z,100644.78
2022-09-22T21:40:01.641Z,100646.25
2022-09-22T21:42:29.569Z,100649.25
2022-09-22T21:44:57.094Z,100648.84
2022-09-22T21:47:24.743Z,100648.41
2022-09-22T21:49:52.514Z,100641.94
2022-09-22T21:52:20.069Z,100644.03
2022-09-22T21:54:47.544Z,100644.94
2022-09-22T21:57:15.397Z,100635.31
2022-09-22T21:59:42.901Z,100640.47
2022-09-22T22:02:10.414Z,100645.72
2022-09-22T22:04:38.242Z,100641.16
2022-09-22T22:07:05.800Z,100646.16
2022-09-22T22:09:33.475Z,100642.72
2022-09-22T22:12:01.465Z,100641.16
2022-09-22T22:14:34.976Z,100641.59
2022-09-22T22:17:02.878Z,100634.53
2022-09-22T22:19:31.114Z,100638.00
2022-09-22T22:21:58.811Z,100634.41
2022-09-22T22:24:26.649Z,100629.81
2022-09-22T22:27:07.308Z,100627.25
2022-09-22T22:29:38.637Z,100630.44
2022-09-22T22:32:09.496Z,100616.53
2022-09-22T22:34:37.749Z,100625.19
2022-09-22T22:37:08.900Z,100628.75
2022-09-22T22:39:37.399Z,100620.84
2022-09-22T22:42:05.833Z,100631.38
2022-09-22T22:44:35.243Z,100620.31
2022-09-22T22:47:02.796Z,100621.06
2022-09-22T22:49:30.642Z,100622.81
2022-09-22T22:51:58.234Z,100624.19
2022-09-22T22:54:26.172Z,100627.75
2022-09-22T22:56:53.959Z,100619.38
2022-09-22T22:59:21.429Z,100622.50
2022-09-22T23:01:49.263Z,100617.94
2022-09-22T23:04:17.128Z,100612.22
2022-09-22T23:06:45.018Z,100615.59
2022-09-22T23:09:16.204Z,100609.41
2022-09-22T23:11:46.366Z,100615.91
2022-09-22T23:14:16.037Z,100616.25
2022-09-22T23:16:46.997Z,100620.84
2022-09-22T23:19:17.922Z,100616.25
2022-09-22T23:21:46.641Z,100618.47
2022-09-22T23:24:19.112Z,100623.03
2022-09-22T23:26:47.363Z,100615.00
2022-09-22T23:29:15.225Z,100613.31
2022-09-22T23:31:42.816Z,100610.97
2022-09-22T23:34:10.542Z,100610.34
2022-09-22T23:36:39.634Z,100607.22
2022-09-22T23:39:07.269Z,100609.88
2022-09-22T23:41:36.807Z,100614.81
2022-09-22T23:44:06.846Z,100606.31
2022-09-22T23:46:34.909Z,100603.63
2022-09-22T23:49:02.782Z,100606.63
2022-09-22T23:51:31.171Z,100599.38
2022-09-22T23:53:59.118Z,100602.50
2022-09-22T23:56:27.039Z,100600.75
2022-09-22T23:58:54.629Z,100610.34
